createdAt,value
2023-03-06T00:00:35.798Z,8.83
2023-03-06T00:03:04.300Z,8.50
2023-03-06T00:05:32.769Z,9.60
2023-03-06T00:08:01.226Z,8.53
2023-03-06T00:10:30.840Z,8.07
2023-03-06T00:13:00.197Z,8.97
2023-03-06T00:15:29.304Z,9.03
2023-03-06T00:17:59.432Z,8.67
2023-03-06T00:20:28.491Z,9.13
2023-03-06T00:22:57.838Z,9.20
2023-03-06T00:25:26.541Z,8.80
2023-03-06T00:27:55.042Z,8.43
2023-03-06T00:30:24.628Z,7.83
2023-03-06T00:32:54.381Z,8.63
2023-03-06T00:35:24.295Z,8.43
2023-03-06T00:37:52.813Z,9.70
2023-03-06T00:40:21.267Z,9.17
2023-03-06T00:42:49.765Z,9.97
2023-03-06T00:45:18.193Z,10.33
2023-03-06T00:47:46.710Z,9.37
2023-03-06T00:50:15.143Z,10.53
2023-03-06T00:52:44.986Z,9.93
2023-03-06T00:55:13.470Z,10.97
2023-03-06T00:57:41.910Z,10.97
2023-03-06T01:00:11.317Z,11.27
2023-03-06T01:02:39.838Z,10.43
2023-03-06T01:05:08.984Z,11.20
2023-03-06T01:07:37.570Z,12.20
2023-03-06T01:10:08.059Z,12.40
2023-03-06T01:12:36.563Z,12.60
2023-03-06T01:15:05.137Z,12.20
2023-03-06T01:17:33.595Z,12.63
2023-03-06T01:20:02.046Z,12.87
2023-03-06T01:22:30.510Z,14.60
2023-03-06T01:24:58.908Z,13.43
2023-03-06T01:27:28.753Z,14.13
2023-03-06T01:29:57.471Z,14.07
2023-03-06T01:32:25.985Z,14.87
2023-03-06T01:34:54.580Z,14.70
2023-03-06T01:37:23.028Z,15.37
2023-03-06T01:39:51.659Z,15.43
2023-03-06T01:42:20.112Z,16.70
2023-03-06T01:45:02.923Z,16.20
2023-03-06T01:47:31.555Z,15.17
2023-03-06T01:50:00.611Z,17.33
2023-03-06T01:52:31.116Z,17.07
2023-03-06T01:55:01.371Z,17.10
2023-03-06T01:57:32.597Z,18.00
2023-03-06T02:00:05.339Z,16.47
2023-03-06T02:02:33.869Z,17.37
2023-03-06T02:05:03.507Z,16.03
2023-03-06T02:07:32.372Z,16.97
2023-03-06T02:10:01.053Z,17.63
2023-03-06T02:12:29.942Z,17.70
2023-03-06T02:14:58.426Z,18.33
2023-03-06T02:17:28.920Z,16.67
2023-03-06T02:20:00.464Z,17.63
2023-03-06T02:22:33.679Z,17.83
2023-03-06T02:25:06.073Z,17.80
2023-03-06T02:27:36.001Z,18.53
2023-03-06T02:30:07.230Z,18.27
2023-03-06T02:32:35.720Z,17.97
2023-03-06T02:35:04.620Z,18.93
2023-03-06T02:37:33.063Z,19.70
2023-03-06T02:40:05.305Z,18.80
2023-03-06T02:42:33.990Z,17.97
2023-03-06T02:45:04.321Z,19.43
2023-03-06T02:47:32.860Z,20.07
2023-03-06T02:50:01.310Z,19.17
2023-03-06T02:52:29.730Z,16.77
2023-03-06T02:54:58.207Z,16.83
2023-03-06T02:57:26.630Z,18.17
2023-03-06T02:59:55.078Z,16.20
2023-03-06T03:02:25.028Z,16.30
2023-03-06T03:04:53.461Z,15.17
2023-03-06T03:07:21.907Z,15.03
2023-03-06T03:09:50.337Z,12.07
2023-03-06T03:12:18.764Z,11.33
2023-03-06T03:14:48.890Z,11.67
2023-03-06T03:17:17.340Z,12.27
2023-03-06T03:19:47.140Z,10.80
2023-03-06T03:22:15.584Z,11.83
2023-03-06T03:24:44.144Z,11.10
2023-03-06T03:27:12.881Z,12.70
2023-03-06T03:29:41.312Z,12.83
2023-03-06T03:32:09.835Z,14.03
2023-03-06T03:34:38.347Z,14.53
2023-03-06T03:37:08.146Z,14.33
2023-03-06T03:39:36.593Z,13.87
2023-03-06T03:42:05.043Z,13.87
2023-03-06T03:44:33.483Z,14.10
2023-03-06T03:47:01.924Z,14.33
2023-03-06T03:49:30.455Z,15.77
2023-03-06T03:51:58.943Z,14.73
2023-03-06T03:54:28.939Z,15.87
2023-03-06T03:56:57.431Z,16.00
2023-03-06T03:59:26.062Z,14.97
2023-03-06T04:01:56.022Z,16.17
2023-03-06T04:04:24.714Z,16.90
2023-03-06T04:06:53.405Z,17.07
2023-03-06T04:09:21.889Z,16.37
2023-03-06T04:11:51.690Z,17.73
2023-03-06T04:14:20.142Z,17.40
2023-03-06T04:16:48.569Z,17.77
2023-03-06T04:19:17.005Z,18.00
2023-03-06T04:21:45.467Z,17.93
2023-03-06T04:24:13.944Z,18.00
2023-03-06T04:26:42.342Z,18.33
2023-03-06T04:29:12.184Z,17.67
2023-03-06T04:31:40.740Z,17.43
2023-03-06T04:34:09.355Z,17.93
2023-03-06T04:36:38.380Z,17.23
2023-03-06T04:39:06.946Z,17.13
2023-03-06T04:41:35.526Z,19.73
2023-03-06T04:44:04.116Z,17.17
2023-03-06T04:46:33.939Z,16.73
2023-03-06T04:49:02.421Z,17.30
2023-03-06T04:51:30.847Z,17.20
2023-03-06T04:53:59.284Z,16.93
2023-03-06T04:56:27.914Z,16.70
2023-03-06T04:58:56.394Z,17.57
2023-03-06T05:01:24.888Z,16.67
2023-03-06T05:03:54.767Z,17.27
2023-03-06T05:06:23.254Z,16.17
2023-03-06T05:08:51.729Z,17.30
2023-03-06T05:11:20.173Z,16.57
2023-03-06T05:13:49.425Z,16.27
2023-03-06T05:16:18.384Z,16.37
2023-03-06T05:18:49.410Z,17.27
2023-03-06T05:21:20.307Z,16.77
2023-03-06T05:23:48.996Z,17.10
2023-03-06T05:26:17.553Z,18.13
2023-03-06T05:28:46.025Z,16.73
2023-03-06T05:31:14.463Z,17.20
2023-03-06T05:33:43.146Z,17.53
2023-03-06T05:36:11.918Z,16.60
2023-03-06T05:38:41.840Z,17.03
2023-03-06T05:41:13.234Z,16.80
2023-03-06T05:43:41.905Z,16.20
2023-03-06T05:46:10.942Z,17.33
2023-03-06T05:48:39.551Z,17.23
2023-03-06T05:51:08.265Z,16.77
2023-03-06T05:53:36.904Z,15.73
2023-03-06T05:56:08.848Z,14.70
2023-03-06T05:58:37.484Z,15.17
2023-03-06T06:01:10.573Z,13.93
2023-03-06T06:03:39.186Z,14.40
2023-03-06T06:06:08.065Z,14.63
2023-03-06T06:08:36.758Z,14.80
2023-03-06T06:11:08.035Z,13.43
2023-03-06T06:13:36.497Z,14.57
2023-03-06T06:16:08.583Z,15.13
2023-03-06T06:18:40.588Z,14.87
2023-03-06T06:21:10.488Z,14.77
2023-03-06T06:23:38.999Z,15.80
2023-03-06T06:26:10.172Z,15.43
2023-03-06T06:28:38.612Z,15.53
2023-03-06T06:31:10.697Z,16.40
2023-03-06T06:33:39.224Z,15.37
2023-03-06T06:36:08.018Z,17.10
2023-03-06T06:38:36.408Z,16.77
2023-03-06T06:41:35.570Z,19.93
2023-03-06T06:43:57.598Z,19.40
2023-03-06T06:47:17.837Z,19.20
2023-03-06T06:49:16.024Z,18.93
2023-03-06T06:51:44.460Z,20.50
2023-03-06T06:54:13.263Z,19.00
2023-03-06T06:56:41.696Z,19.43
2023-03-06T06:59:17.171Z,20.47
2023-03-06T07:01:46.082Z,19.77
2023-03-06T07:04:14.872Z,21.17
2023-03-06T07:06:43.461Z,19.17
2023-03-06T07:09:12.301Z,18.97
2023-03-06T07:11:41.000Z,19.37
2023-03-06T07:14:10.886Z,19.67
2023-03-06T07:16:39.691Z,20.23
2023-03-06T07:19:08.478Z,19.47
2023-03-06T07:21:36.917Z,19.27
2023-03-06T07:24:05.542Z,18.40
2023-03-06T07:26:34.866Z,18.60
2023-03-06T07:29:03.672Z,17.17
2023-03-06T07:31:33.657Z,17.20
2023-03-06T07:34:04.818Z,17.83
2023-03-06T07:36:34.195Z,17.00
2023-03-06T07:39:02.760Z,16.37
2023-03-06T07:41:33.669Z,16.73
2023-03-06T07:44:02.176Z,15.27
2023-03-06T07:46:30.744Z,14.87
2023-03-06T07:49:00.554Z,14.63
2023-03-06T07:51:28.981Z,14.77
2023-03-06T07:53:57.410Z,15.30
2023-03-06T07:56:25.845Z,16.00
2023-03-06T07:58:56.037Z,14.83
2023-03-06T08:01:25.254Z,16.73
2023-03-06T08:03:53.813Z,15.73
2023-03-06T08:06:24.636Z,15.37
2023-03-06T08:08:53.833Z,14.97
2023-03-06T08:11:23.361Z,15.33
2023-03-06T08:13:52.834Z,14.97
2023-03-06T08:16:21.777Z,15.13
2023-03-06T08:18:50.288Z,16.03
2023-03-06T08:21:20.052Z,15.50
2023-03-06T08:23:50.232Z,16.27
2023-03-06T08:26:19.645Z,16.33
2023-03-06T08:28:48.293Z,17.73
2023-03-06T08:31:23.405Z,17.23
2023-03-06T08:33:52.217Z,19.27
2023-03-06T08:36:20.775Z,18.47
2023-03-06T08:38:50.662Z,18.70
2023-03-06T08:41:20.332Z,18.43
2023-03-06T08:43:49.472Z,20.57
2023-03-06T08:46:19.335Z,19.83
2023-03-06T08:48:48.410Z,18.10
2023-03-06T08:51:17.406Z,21.63
2023-03-06T08:53:46.024Z,20.20
2023-03-06T08:56:19.591Z,20.97
2023-03-06T08:58:48.727Z,21.63
2023-03-06T09:01:18.130Z,19.63
2023-03-06T09:03:46.649Z,21.73
2023-03-06T09:06:15.406Z,21.83
2023-03-06T09:08:44.781Z,21.93
2023-03-06T09:11:13.789Z,23.83
2023-03-06T09:13:44.054Z,22.70
2023-03-06T09:16:13.425Z,22.43
2023-03-06T09:18:41.951Z,23.00
2023-03-06T09:21:11.115Z,21.90
2023-03-06T09:23:40.045Z,21.03
2023-03-06T09:26:09.304Z,22.30
2023-03-06T09:28:39.016Z,22.27
2023-03-06T09:31:11.400Z,22.20
2023-03-06T09:33:40.568Z,21.00
2023-03-06T09:36:09.787Z,21.37
2023-03-06T09:38:38.203Z,22.03
2023-03-06T09:41:10.287Z,22.70
2023-03-06T09:43:39.932Z,22.17
2023-03-06T09:46:15.348Z,22.23
2023-03-06T09:48:49.188Z,21.07
2023-03-06T09:51:19.130Z,22.40
2023-03-06T09:53:53.888Z,23.07
2023-03-06T09:56:23.875Z,21.07
2023-03-06T09:58:54.523Z,21.33
2023-03-06T10:01:26.173Z,20.23
2023-03-06T10:03:56.808Z,18.70
2023-03-06T10:06:27.263Z,17.97
2023-03-06T10:08:58.781Z,17.07
2023-03-06T10:11:30.116Z,17.63
2023-03-06T10:14:08.295Z,16.97
2023-03-06T10:16:38.321Z,17.90
2023-03-06T10:19:12.189Z,20.33
2023-03-06T10:21:44.927Z,20.17
2023-03-06T10:24:20.625Z,20.07
2023-03-06T10:26:51.785Z,18.37
2023-03-06T10:29:29.628Z,18.93
2023-03-06T10:32:04.540Z,15.97
2023-03-06T10:34:34.828Z,14.63
2023-03-06T10:37:07.862Z,14.87
2023-03-06T10:39:36.292Z,16.47
2023-03-06T10:42:04.771Z,16.80
2023-03-06T10:44:33.200Z,16.87
2023-03-06T10:47:23.001Z,15.23
2023-03-06T10:49:59.149Z,15.00
2023-03-06T10:52:30.354Z,18.07
2023-03-06T10:55:23.712Z,16.80
2023-03-06T10:57:52.297Z,16.53
2023-03-06T11:00:28.423Z,15.23
2023-03-06T11:03:07.900Z,15.20
2023-03-06T11:05:36.328Z,13.82
2023-03-06T11:08:04.762Z,12.13
2023-03-06T11:10:35.458Z,14.02
2023-03-06T11:13:07.503Z,12.57
2023-03-06T11:15:36.456Z,12.88
2023-03-06T11:18:06.476Z,10.85
2023-03-06T11:20:50.912Z,10.25
2023-03-06T11:23:21.038Z,9.95
2023-03-06T11:25:51.376Z,9.90
2023-03-06T11:28:23.519Z,10.63
2023-03-06T11:30:53.928Z,11.02
2023-03-06T11:33:27.573Z,10.63
2023-03-06T11:36:02.618Z,10.30
2023-03-06T11:38:35.015Z,10.30
2023-03-06T11:41:07.164Z,10.45
2023-03-06T11:43:38.046Z,9.52
2023-03-06T11:46:09.160Z,8.52
2023-03-06T11:48:41.171Z,7.70
2023-03-06T11:51:15.899Z,7.00
2023-03-06T11:53:44.334Z,7.75
2023-03-06T11:56:20.298Z,7.50
2023-03-06T11:58:55.988Z,8.30
2023-03-06T12:01:25.848Z,8.60
2023-03-06T12:04:08.594Z,8.27
2023-03-06T12:06:43.613Z,7.72
2023-03-06T12:09:24.209Z,8.27
2023-03-06T12:11:58.151Z,8.25
2023-03-06T12:14:34.268Z,8.63
2023-03-06T12:17:07.813Z,7.40
2023-03-06T12:19:46.295Z,5.28
2023-03-06T12:22:23.565Z,5.35
2023-03-06T12:25:02.862Z,5.38
2023-03-06T12:27:37.276Z,5.78
2023-03-06T12:30:19.018Z,5.55
2023-03-06T12:32:51.310Z,5.82
2023-03-06T12:35:27.203Z,6.60
2023-03-06T12:38:02.437Z,6.22
2023-03-06T12:40:39.209Z,5.40
2023-03-06T12:43:19.858Z,6.38
2023-03-06T12:45:49.750Z,5.53
2023-03-06T12:48:19.720Z,5.30
2023-03-06T12:50:48.529Z,5.40
2023-03-06T12:53:23.735Z,5.47
2023-03-06T12:55:52.553Z,4.45
2023-03-06T12:58:37.316Z,5.00
2023-03-06T13:01:10.999Z,4.72
2023-03-06T13:03:49.599Z,4.82
2023-03-06T13:06:49.864Z,4.93
2023-03-06T13:09:28.582Z,4.53
2023-03-06T13:12:15.934Z,3.85
2023-03-06T13:14:55.221Z,4.55
2023-03-06T13:17:33.997Z,4.32
2023-03-06T13:20:29.260Z,4.85
2023-03-06T13:22:58.546Z,4.70
2023-03-06T13:25:48.849Z,4.35
2023-03-06T13:28:27.818Z,4.80
2023-03-06T13:30:56.367Z,4.43
2023-03-06T13:33:43.342Z,4.80
2023-03-06T13:36:28.877Z,4.93
2023-03-06T13:38:58.910Z,4.68
2023-03-06T13:41:45.134Z,4.70
2023-03-06T13:44:32.588Z,4.40
2023-03-06T13:47:02.138Z,4.45
2023-03-06T13:49:31.350Z,4.72
2023-03-06T13:52:08.931Z,4.47
2023-03-06T13:54:48.323Z,4.30
2023-03-06T13:57:32.979Z,4.95
2023-03-06T14:00:19.563Z,5.35
2023-03-06T14:03:02.674Z,6.07
2023-03-06T14:05:43.179Z,5.70
2023-03-06T14:08:12.392Z,6.78
2023-03-06T14:10:41.190Z,7.70
2023-03-06T14:13:16.919Z,8.73
2023-03-06T14:15:46.435Z,7.72
2023-03-06T14:18:20.044Z,8.10
2023-03-06T14:20:50.990Z,7.82
2023-03-06T14:23:30.478Z,7.95
2023-03-06T14:26:01.788Z,8.10
2023-03-06T14:28:32.433Z,8.85
2023-03-06T14:31:02.342Z,9.35
2023-03-06T14:33:36.362Z,8.88
2023-03-06T14:36:09.719Z,10.60
2023-03-06T14:38:39.978Z,11.77
2023-03-06T14:41:11.377Z,12.25
2023-03-06T14:43:42.822Z,12.90
2023-03-06T14:46:20.590Z,12.82
2023-03-06T14:48:49.556Z,13.23
2023-03-06T14:51:19.081Z,13.80
2023-03-06T14:53:48.954Z,12.75
2023-03-06T14:56:19.347Z,12.15
2023-03-06T14:58:53.960Z,11.90
2023-03-06T15:01:30.354Z,13.55
2023-03-06T15:04:00.625Z,13.93
2023-03-06T15:06:33.181Z,13.00
2023-03-06T15:09:06.498Z,13.43
2023-03-06T15:11:56.981Z,12.98
2023-03-06T15:14:34.762Z,12.98
2023-03-06T15:17:23.545Z,12.13
2023-03-06T15:19:54.250Z,12.32
2023-03-06T15:22:26.563Z,11.00
2023-03-06T15:24:55.236Z,10.95
2023-03-06T15:27:29.042Z,11.23
2023-03-06T15:30:12.681Z,10.57
2023-03-06T15:32:42.938Z,11.13
2023-03-06T15:35:32.726Z,11.15
2023-03-06T15:38:01.551Z,12.48
2023-03-06T15:40:31.784Z,12.73
2023-03-06T15:43:00.492Z,13.40
2023-03-06T15:45:31.974Z,14.57
2023-03-06T15:48:02.808Z,13.48
2023-03-06T15:50:31.302Z,13.40
2023-03-06T15:52:59.714Z,15.05
2023-03-06T15:55:28.254Z,14.98
2023-03-06T15:57:59.599Z,16.17
2023-03-06T16:00:29.333Z,14.25
2023-03-06T16:02:58.304Z,15.13
2023-03-06T16:05:29.036Z,15.48
2023-03-06T16:07:57.547Z,16.20
2023-03-06T16:10:27.250Z,16.20
2023-03-06T16:12:57.012Z,15.18
2023-03-06T16:15:29.042Z,13.82
2023-03-06T16:17:57.559Z,16.08
2023-03-06T16:20:27.099Z,14.35
2023-03-06T16:22:57.219Z,16.15
2023-03-06T16:25:26.581Z,16.27
2023-03-06T16:27:59.012Z,15.05
2023-03-06T16:30:29.019Z,15.45
2023-03-06T16:32:57.594Z,16.35
2023-03-06T16:35:26.256Z,18.35
2023-03-06T16:37:54.803Z,18.02
2023-03-06T16:40:25.290Z,17.40
2023-03-06T16:42:55.211Z,18.50
2023-03-06T16:45:24.882Z,17.70
2023-03-06T16:47:54.358Z,18.47
2023-03-06T16:50:27.198Z,18.15
2023-03-06T16:52:56.979Z,17.50
2023-03-06T16:55:27.477Z,17.73
2023-03-06T16:57:56.006Z,18.65
2023-03-06T17:00:24.998Z,17.58
2023-03-06T17:02:53.816Z,19.92
2023-03-06T17:05:22.687Z,18.58
2023-03-06T17:07:51.428Z,19.00
2023-03-06T17:10:22.657Z,19.45
2023-03-06T17:12:52.522Z,19.45
2023-03-06T17:15:21.241Z,18.80
2023-03-06T17:17:51.555Z,17.77
2023-03-06T17:20:20.622Z,18.48
2023-03-06T17:22:49.108Z,18.37
2023-03-06T17:25:17.665Z,17.90
2023-03-06T17:27:46.173Z,18.13
2023-03-06T17:30:16.496Z,18.60
2023-03-06T17:32:45.016Z,18.33
2023-03-06T17:35:13.461Z,18.15
2023-03-06T17:37:41.875Z,19.40
2023-03-06T17:40:11.550Z,19.60
2023-03-06T17:42:39.989Z,18.15
2023-03-06T17:45:11.106Z,17.52
2023-03-06T17:47:41.651Z,17.50
2023-03-06T17:50:10.760Z,17.45
2023-03-06T17:52:39.274Z,17.93
2023-03-06T17:55:08.330Z,16.97
2023-03-06T17:57:36.773Z,16.67
2023-03-06T18:00:05.920Z,17.37
2023-03-06T18:02:34.341Z,18.55
2023-03-06T18:05:04.592Z,17.67
2023-03-06T18:07:33.057Z,17.87
2023-03-06T18:10:01.569Z,17.20
2023-03-06T18:12:30.116Z,17.13
2023-03-06T18:14:58.552Z,17.48
2023-03-06T18:17:27.020Z,16.77
2023-03-06T18:19:56.836Z,17.08
2023-03-06T18:22:26.675Z,16.90
2023-03-06T18:24:55.155Z,18.05
2023-03-06T18:27:24.065Z,16.73
2023-03-06T18:29:53.272Z,17.60
2023-03-06T18:32:21.829Z,17.60
2023-03-06T18:34:50.976Z,17.50
2023-03-06T18:37:19.612Z,18.10
2023-03-06T18:39:49.588Z,17.20
2023-03-06T18:42:18.530Z,18.77
2023-03-06T18:44:48.285Z,17.97
2023-03-06T18:47:17.015Z,17.90
2023-03-06T18:49:46.329Z,16.20
2023-03-06T18:52:14.920Z,16.70
2023-03-06T18:54:43.373Z,17.17
2023-03-06T18:57:13.237Z,17.07
2023-03-06T18:59:41.675Z,17.73
2023-03-06T19:02:12.053Z,17.33
2023-03-06T19:04:40.476Z,17.77
2023-03-06T19:07:08.922Z,17.73
2023-03-06T19:09:37.539Z,17.30
2023-03-06T19:12:06.272Z,17.90
2023-03-06T19:14:36.380Z,16.87
2023-03-06T19:17:04.929Z,16.70
2023-03-06T19:19:33.471Z,17.40
2023-03-06T19:22:02.015Z,16.77
2023-03-06T19:24:30.464Z,17.08
2023-03-06T19:26:58.897Z,13.87
2023-03-06T19:29:28.464Z,16.80
2023-03-06T19:31:58.952Z,15.80
2023-03-06T19:34:27.485Z,16.20
2023-03-06T19:36:55.942Z,17.87
2023-03-06T19:39:24.855Z,18.03
2023-03-06T19:41:53.616Z,16.80
2023-03-06T19:44:23.205Z,17.73
2023-03-06T19:46:51.667Z,17.10
2023-03-06T19:49:22.251Z,15.70
2023-03-06T19:51:50.745Z,14.97
2023-03-06T19:54:23.298Z,14.60
2023-03-06T19:56:51.808Z,15.40
2023-03-06T19:59:20.440Z,14.63
2023-03-06T20:01:48.986Z,14.57
2023-03-06T20:04:17.504Z,13.23
2023-03-06T20:06:48.377Z,14.53
2023-03-06T20:09:16.872Z,14.13
2023-03-06T20:11:45.394Z,13.33
2023-03-06T20:14:14.499Z,13.63
2023-03-06T20:16:42.964Z,13.83
2023-03-06T20:19:12.534Z,13.90
2023-03-06T20:21:41.018Z,14.43
2023-03-06T20:24:16.643Z,13.83
2023-03-06T20:26:45.498Z,13.43
2023-03-06T20:29:14.207Z,13.70
2023-03-06T20:31:42.686Z,15.10
2023-03-06T20:34:14.987Z,15.30
2023-03-06T20:36:43.498Z,14.50
2023-03-06T20:39:14.921Z,15.67
2023-03-06T20:41:43.987Z,14.70
2023-03-06T20:44:14.859Z,17.10
2023-03-06T20:46:43.437Z,16.50
2023-03-06T20:49:13.200Z,16.07
2023-03-06T20:51:42.189Z,16.33
2023-03-06T20:54:11.694Z,16.70
2023-03-06T20:56:42.217Z,16.23
2023-03-06T20:59:12.613Z,17.23
2023-03-06T21:01:42.097Z,16.23
2023-03-06T21:04:11.157Z,15.63
2023-03-06T21:06:39.802Z,15.90
2023-03-06T21:09:08.402Z,17.60
2023-03-06T21:11:37.342Z,17.33
2023-03-06T21:14:07.196Z,15.73
2023-03-06T21:16:36.020Z,16.80
2023-03-06T21:19:05.190Z,16.47
2023-03-06T21:21:34.875Z,17.83
2023-03-06T21:24:03.615Z,17.13
2023-03-06T21:26:33.734Z,18.27
2023-03-06T21:29:02.661Z,18.57
2023-03-06T21:31:33.468Z,17.17
2023-03-06T21:34:04.478Z,17.87
2023-03-06T21:36:33.431Z,18.20
2023-03-06T21:39:01.868Z,17.60
2023-03-06T21:41:32.342Z,18.33
2023-03-06T21:44:01.596Z,17.77
2023-03-06T21:46:30.296Z,19.60
2023-03-06T21:49:00.291Z,18.70
2023-03-06T21:51:28.981Z,19.27
2023-03-06T21:53:57.667Z,19.77
2023-03-06T21:56:28.456Z,20.43
2023-03-06T21:58:58.245Z,18.73
2023-03-06T22:01:27.689Z,19.67
2023-03-06T22:03:56.482Z,19.70
2023-03-06T22:06:27.284Z,20.40
2023-03-06T22:08:56.916Z,19.30
2023-03-06T22:11:25.864Z,19.87
2023-03-06T22:13:54.455Z,20.40
2023-03-06T22:16:23.097Z,21.07
2023-03-06T22:18:52.718Z,21.47
2023-03-06T22:21:22.693Z,20.13
2023-03-06T22:23:52.870Z,22.10
2023-03-06T22:26:21.730Z,20.83
2023-03-06T22:28:50.355Z,21.97
2023-03-06T22:31:19.725Z,21.37
2023-03-06T22:33:48.411Z,21.80
2023-03-06T22:36:17.602Z,22.07
2023-03-06T22:38:46.883Z,20.97
2023-03-06T22:41:17.567Z,20.17
2023-03-06T22:43:46.321Z,20.70
2023-03-06T22:46:15.734Z,21.97
2023-03-06T22:48:44.431Z,21.10
2023-03-06T22:51:13.936Z,22.17
2023-03-06T22:53:42.786Z,21.27
2023-03-06T22:56:12.141Z,20.23
2023-03-06T22:58:42.119Z,21.00
2023-03-06T23:01:13.617Z,21.23
2023-03-06T23:03:42.970Z,22.07
2023-03-06T23:06:12.139Z,21.07
2023-03-06T23:08:40.689Z,21.70
2023-03-06T23:11:10.419Z,21.87
2023-03-06T23:13:38.985Z,21.30
2023-03-06T23:16:10.391Z,21.07
2023-03-06T23:18:39.372Z,19.67
2023-03-06T23:21:08.794Z,21.03
2023-03-06T23:23:37.262Z,21.07
2023-03-06T23:26:06.064Z,21.20
2023-03-06T23:28:34.912Z,22.00
2023-03-06T23:31:09.457Z,20.83
2023-03-06T23:33:38.831Z,19.90
2023-03-06T23:36:08.007Z,20.57
2023-03-06T23:38:36.893Z,16.47
2023-03-06T23:41:06.131Z,18.83
2023-03-06T23:43:34.749Z,17.80
2023-03-06T23:46:03.244Z,15.80
2023-03-06T23:48:33.105Z,13.53
2023-03-06T23:51:03.254Z,14.40
2023-03-06T23:53:31.687Z,13.33
2023-03-06T23:56:00.163Z,13.00
2023-03-06T23:58:29.784Z,12.30
